Date,TemperatureHighF,TemperatureAvgF,TemperatureLowF,DewpointHighF,DewpointAvgF,DewpointLowF,HumidityHigh,HumidityAvg,HumidityLow,PressureMaxIn,PressureMinIn,WindSpeedMaxMPH,WindSpeedAvgMPH,GustSpeedMaxMPH,PrecipitationSumIn
2013-2-1,59.0,50.3,44.0,-99.9,-99.9,-99.9,0,0,100,30.40,30.29,0,-999,0,0.00
2013-2-2,60.0,50.3,39.0,-99.9,-99.9,-99.9,0,0,100,30.36,30.17,0,-999,0,0.00
2013-2-3,71.0,58.3,48.0,-99.9,-99.9,-99.9,0,0,100,30.25,30.12,0,-999,0,0.00
2013-2-4,61.0,54.6,48.0,-99.9,-99.9,-99.9,0,0,100,30.12,29.98,0,-999,0,0.00
2013-2-5,67.0,59.6,55.0,-99.9,-99.9,-99.9,0,0,100,30.03,29.95,0,-999,0,0.00
2013-2-6,72.0,59.3,54.0,-99.9,-99.9,-99.9,0,0,100,30.15,30.01,0,-999,0,0.00
2013-2-7,79.0,64.4,58.0,-99.9,-99.9,-99.9,0,0,100,30.04,29.79,0,-999,0,0.00
2013-2-8,67.0,58.9,53.0,-99.9,-99.9,-99.9,0,0,100,30.15,29.94,0,-999,0,0.00
2013-2-9,62.0,55.4,45.0,-99.9,-99.9,-99.9,0,0,100,30.25,30.12,0,-999,0,0.00
2013-2-10,69.0,63.4,56.0,-99.9,-99.9,-99.9,0,0,100,30.13,29.96,0,-999,0,0.00
2013-2-11,69.0,60.9,57.0,-99.9,-99.9,-99.9,0,0,100,30.11,29.99,0,-999,0,0.00
2013-2-12,72.0,61.6,56.0,-99.9,-99.9,-99.9,0,0,100,30.06,29.75,0,-999,0,0.00
2013-2-13,70.0,54.6,46.0,-99.9,-99.9,-99.9,0,0,100,30.06,29.76,0,-999,0,0.00
2013-2-14,58.0,48.8,42.0,-99.9,-99.9,-99.9,0,0,100,30.16,30.04,0,-999,0,0.00
2013-2-15,66.0,53.0,40.0,-99.9,-99.9,-99.9,0,0,100,30.17,30.03,0,-999,0,0.00
2013-2-16,56.0,49.1,40.0,-99.9,-99.9,-99.9,0,0,100,30.29,30.08,0,-999,0,0.00
2013-2-17,54.0,43.5,33.0,-99.9,-99.9,-99.9,0,0,100,30.39,30.27,0,-999,0,0.00
2013-2-18,61.0,55.1,47.0,-99.9,-99.9,-99.9,0,0,100,30.29,30.03,0,-999,0,0.00
2013-2-19,68.0,60.4,49.0,-99.9,-99.9,-99.9,0,0,100,30.20,29.96,0,-999,0,0.00
2013-2-20,57.0,49.5,42.0,-99.9,-99.9,-99.9,0,0,100,30.27,30.09,0,-999,0,0.00
2013-2-21,65.0,56.4,44.0,-99.9,-99.9,-99.9,0,0,100,30.08,29.87,0,-999,0,0.00
2013-2-22,70.0,64.8,59.0,-99.9,-99.9,-99.9,0,0,100,29.97,29.84,0,-999,0,0.00
2013-2-23,59.0,57.2,55.0,-99.9,-99.9,-99.9,0,0,100,29.95,29.75,0,-999,0,0.00
2013-2-24,71.0,59.2,49.0,-99.9,-99.9,-99.9,0,0,100,30.00,29.82,0,-999,0,0.00
2013-2-25,67.0,61.3,57.0,-99.9,-99.9,-99.9,0,0,100,29.86,29.50,0,-999,0,0.00
2013-2-26,66.0,57.9,52.0,-99.9,-99.9,-99.9,0,0,100,29.92,29.50,0,-999,0,0.00
2013-2-27,63.0,54.6,48.0,-99.9,-99.9,-99.9,0,0,100,30.02,29.91,0,-999,0,0.00
2013-2-28,62.0,52.5,44.0,-99.9,-99.9,-99.9,0,0,100,30.09,29.97,0,-999,0,0.00